Time;durP1;ratioP1;P1;durP2;ratioP2;P2;SDS_P1;SDS_P2;PMS_P1;PMS_P2;Temp;Humidity;BMP_temperature;BMP_pressure;BME280_temperature;BME280_humidity;BME280_pressure;Samples;Min_cycle;Max_cycle;Signal;HPM_P1;HPM_P2
2023/11/21 00:00:45;;;;;;;22.85;7.30;;;9.00;99.90;;;;;;4933080;29;20032;-76
2023/11/21 00:03:33;;;;;;;21.73;7.70;;;8.90;99.90;;;;;;4923639;28;20087;-76
2023/11/21 00:06:20;;;;;;;17.08;7.80;;;8.90;99.90;;;;;;4936195;29;20054;-76
2023/11/21 00:09:08;;;;;;;19.20;7.50;;;8.90;99.90;;;;;;4942195;29;20098;-76
2023/11/21 00:11:54;;;;;;;19.58;6.82;;;8.90;99.90;;;;;;4905657;29;20052;-77
2023/11/21 00:14:40;;;;;;;22.20;8.02;;;8.90;99.90;;;;;;4945215;29;20065;-76
2023/11/21 00:17:26;;;;;;;19.83;7.68;;;8.90;99.90;;;;;;4931783;28;20049;-77
2023/11/21 00:20:13;;;;;;;22.15;7.57;;;8.90;99.90;;;;;;4918716;28;20062;-76
2023/11/21 00:23:00;;;;;;;19.23;8.05;;;8.80;99.90;;;;;;4911936;29;20060;-77
2023/11/21 00:25:46;;;;;;;16.17;7.25;;;8.90;99.90;;;;;;4920820;29;20038;-76
2023/11/21 00:28:32;;;;;;;20.85;8.48;;;8.90;99.90;;;;;;4933573;28;20412;-76
2023/11/21 00:31:19;;;;;;;21.98;8.50;;;8.90;99.90;;;;;;4923546;29;20764;-76
2023/11/21 00:34:05;;;;;;;22.75;8.43;;;8.90;99.90;;;;;;4932950;29;20112;-77
2023/11/21 00:36:52;;;;;;;20.08;8.57;;;8.90;99.90;;;;;;4928834;29;20086;-77
2023/11/21 00:39:38;;;;;;;19.15;7.75;;;8.90;99.90;;;;;;4953063;29;20182;-76
2023/11/21 00:42:24;;;;;;;25.00;9.77;;;8.80;99.90;;;;;;4949605;29;20035;-76
2023/11/21 00:45:11;;;;;;;19.80;8.75;;;8.90;99.90;;;;;;4917874;29;20412;-76
2023/11/21 00:47:58;;;;;;;23.83;10.30;;;8.80;99.90;;;;;;4920183;29;20376;-76
2023/11/21 00:50:45;;;;;;;23.70;9.88;;;8.70;99.90;;;;;;4934426;29;20066;-76
2023/11/21 00:53:31;;;;;;;22.10;9.48;;;8.70;99.90;;;;;;4937820;29;20039;-76
2023/11/21 00:56:19;;;;;;;22.10;9.48;;;8.70;99.90;;;;;;4940970;29;20043;-76
2023/11/21 00:59:05;;;;;;;24.50;10.13;;;8.70;99.90;;;;;;4919976;28;20039;-76
2023/11/21 01:01:53;;;;;;;20.42;9.40;;;8.60;99.90;;;;;;4918881;29;20280;-76
2023/11/21 01:04:39;;;;;;;;;;;8.60;99.90;;;;;;4937524;29;20587;-76
2023/11/21 01:07:25;;;;;;;21.85;10.20;;;8.60;99.90;;;;;;4961172;29;19914;-76
2023/11/21 01:10:11;;;;;;;24.80;10.68;;;8.70;99.90;;;;;;4920362;29;20102;-76
2023/11/21 01:12:57;;;;;;;27.23;10.32;;;8.60;99.90;;;;;;4914621;28;20678;-76
2023/11/21 01:15:44;;;;;;;24.25;10.55;;;8.60;99.90;;;;;;4928207;29;20043;-77
2023/11/21 01:18:31;;;;;;;20.50;10.15;;;8.50;99.90;;;;;;4921201;29;20039;-77
2023/11/21 01:21:17;;;;;;;21.95;10.10;;;8.60;99.90;;;;;;4924991;29;20128;-77
2023/11/21 01:24:07;;;;;;;22.80;10.20;;;8.60;99.90;;;;;;4919662;29;20052;-77
2023/11/21 01:26:53;;;;;;;34.63;11.18;;;8.70;99.90;;;;;;4931268;29;20048;-77
2023/11/21 01:29:39;;;;;;;23.25;10.75;;;8.70;99.90;;;;;;4944215;29;20035;-76
2023/11/21 01:32:25;;;;;;;21.50;10.60;;;8.60;99.90;;;;;;4931047;29;20048;-76
2023/11/21 01:35:14;;;;;;;29.95;12.38;;;8.60;99.90;;;;;;4928898;28;20047;-77
2023/11/21 01:38:00;;;;;;;21.90;11.00;;;8.70;99.90;;;;;;4937324;28;20236;-76
2023/11/21 01:40:46;;;;;;;26.67;13.10;;;8.70;99.90;;;;;;4923079;29;20122;-76
2023/11/21 01:43:32;;;;;;;26.23;11.13;;;8.70;99.90;;;;;;4932059;29;20039;-77
2023/11/21 01:46:20;;;;;;;28.85;10.85;;;8.60;99.90;;;;;;4932389;29;20039;-77
2023/11/21 01:49:06;;;;;;;31.95;12.02;;;8.70;99.90;;;;;;4931360;29;20058;-76
2023/11/21 01:51:53;;;;;;;24.48;11.88;;;8.60;99.90;;;;;;4907241;29;20039;-76
2023/11/21 01:54:40;;;;;;;28.20;12.02;;;8.60;99.90;;;;;;4936948;29;20039;-76
2023/11/21 01:57:26;;;;;;;27.50;12.18;;;8.70;99.90;;;;;;4937626;29;20050;-76
2023/11/21 02:00:15;;;;;;;24.83;12.40;;;8.70;99.90;;;;;;4939085;29;20124;-76
2023/11/21 02:03:03;;;;;;;29.38;13.43;;;8.70;99.90;;;;;;4946224;28;20035;-76
2023/11/21 02:05:49;;;;;;;;;;;8.70;99.90;;;;;;4928852;29;20126;-76
2023/11/21 02:08:37;;;;;;;26.20;11.63;;;8.70;99.90;;;;;;4953110;28;20001;-76
2023/11/21 02:11:24;;;;;;;32.22;14.52;;;8.70;99.90;;;;;;4925122;29;20082;-76
2023/11/21 02:14:10;;;;;;;26.00;12.43;;;8.60;99.90;;;;;;4938380;28;20048;-76
2023/11/21 02:16:57;;;;;;;30.80;13.45;;;8.70;99.90;;;;;;4946129;29;20540;-76
2023/11/21 02:19:44;;;;;;;31.60;12.68;;;8.70;99.90;;;;;;4941066;29;20135;-77
2023/11/21 02:22:31;;;;;;;28.27;12.75;;;8.70;99.90;;;;;;4940280;28;20495;-76
2023/11/21 02:25:18;;;;;;;20.05;11.45;;;8.80;99.90;;;;;;4935564;29;20046;-76
2023/11/21 02:28:04;;;;;;;34.45;13.57;;;8.80;99.90;;;;;;4942592;29;20046;-76
2023/11/21 02:30:55;;;;;;;28.15;13.52;;;8.80;99.90;;;;;;4937056;29;20047;-76
2023/11/21 02:33:43;;;;;;;30.55;13.70;;;8.70;99.90;;;;;;4952555;28;20043;-76
2023/11/21 02:36:31;;;;;;;35.00;13.25;;;8.70;99.90;;;;;;4924539;29;20043;-76
2023/11/21 02:39:21;;;;;;;29.37;12.73;;;8.70;99.90;;;;;;4934541;28;20476;-76
2023/11/21 02:42:08;;;;;;;28.23;14.00;;;8.70;99.90;;;;;;4953345;28;20297;-76
2023/11/21 02:44:54;;;;;;;29.63;13.55;;;8.80;99.90;;;;;;4951155;28;20130;-76
2023/11/21 02:47:40;;;;;;;28.95;12.57;;;8.70;99.90;;;;;;4930247;29;20119;-76
2023/11/21 02:50:29;;;;;;;26.58;14.15;;;8.80;99.90;;;;;;4938771;28;20472;-76
2023/11/21 02:53:15;;;;;;;29.05;13.80;;;8.70;99.90;;;;;;4922828;28;20098;-75
2023/11/21 02:56:03;;;;;;;29.73;14.40;;;8.70;99.90;;;;;;4934425;29;20388;-76
2023/11/21 02:58:49;;;;;;;32.10;15.05;;;8.80;99.90;;;;;;4937113;29;20070;-76
2023/11/21 03:01:35;;;;;;;30.05;14.88;;;8.70;99.90;;;;;;4943274;28;20034;-76
2023/11/21 03:04:21;;;;;;;33.25;13.30;;;8.80;99.90;;;;;;4927070;29;20044;-76
2023/11/21 03:07:09;;;;;;;30.27;13.80;;;8.70;99.90;;;;;;4934913;29;20380;-76
2023/11/21 03:09:55;;;;;;;29.08;13.80;;;8.80;99.90;;;;;;4940772;28;20045;-76
2023/11/21 03:12:42;;;;;;;32.08;15.20;;;8.70;99.90;;;;;;4904766;29;20055;-76
2023/11/21 03:15:28;;;;;;;32.60;14.93;;;8.80;99.90;;;;;;4903880;29;20473;-76
2023/11/21 03:18:14;;;;;;;31.73;14.95;;;8.80;99.90;;;;;;4933856;29;20118;-76
2023/11/21 03:21:04;;;;;;;33.95;14.77;;;8.80;99.90;;;;;;4947612;29;20039;-76
2023/11/21 03:23:50;;;;;;;33.25;15.95;;;8.80;99.90;;;;;;4935371;29;20043;-76
2023/11/21 03:26:38;;;;;;;34.67;16.38;;;8.80;99.90;;;;;;4938027;28;20040;-76
2023/11/21 03:29:25;;;;;;;41.00;16.58;;;8.80;99.90;;;;;;4940252;28;20039;-76
2023/11/21 03:32:12;;;;;;;33.88;15.50;;;8.80;99.90;;;;;;4936253;29;20051;-76
2023/11/21 03:34:59;;;;;;;33.47;15.50;;;8.80;99.90;;;;;;4934212;29;20071;-76
2023/11/21 03:37:46;;;;;;;37.30;16.63;;;8.80;99.90;;;;;;4916687;29;20035;-76
2023/11/21 03:40:33;;;;;;;31.25;16.08;;;8.80;99.90;;;;;;4916407;29;20094;-76
2023/11/21 03:43:19;;;;;;;29.17;14.77;;;8.80;99.90;;;;;;4946507;29;20066;-77
2023/11/21 03:46:06;;;;;;;42.00;17.35;;;8.80;99.90;;;;;;4925070;29;20043;-77
2023/11/21 03:48:54;;;;;;;32.95;15.23;;;8.80;99.90;;;;;;4931243;29;20039;-77
2023/11/21 03:51:41;;;;;;;34.83;16.10;;;8.80;99.90;;;;;;4936980;29;20046;-76
2023/11/21 03:54:28;;;;;;;39.53;18.63;;;8.80;99.90;;;;;;4929104;28;20274;-77
2023/11/21 03:57:14;;;;;;;34.08;16.48;;;8.90;99.90;;;;;;4921645;29;20824;-76
2023/11/21 04:00:04;;;;;;;37.45;17.05;;;8.80;99.90;;;;;;4942661;28;20122;-76
2023/11/21 04:02:51;;;;;;;34.78;18.00;;;8.80;99.90;;;;;;4943949;29;20090;-76
2023/11/21 04:05:37;;;;;;;42.45;17.73;;;8.80;99.90;;;;;;4952729;28;20042;-76
2023/11/21 04:08:25;;;;;;;37.90;17.15;;;8.80;99.90;;;;;;4956309;28;20470;-77
2023/11/21 04:11:15;;;;;;;37.47;19.17;;;8.80;99.90;;;;;;4930869;29;20472;-76
2023/11/21 04:14:03;;;;;;;38.47;17.73;;;8.80;99.90;;;;;;4925579;29;20043;-77
2023/11/21 04:16:49;;;;;;;39.53;18.88;;;8.80;99.90;;;;;;4930898;29;20058;-79
2023/11/21 04:19:36;;;;;;;39.75;17.75;;;8.80;99.90;;;;;;4919782;29;20059;-79
2023/11/21 04:22:22;;;;;;;37.63;17.48;;;8.80;99.90;;;;;;4938482;28;20476;-79
2023/11/21 04:25:10;;;;;;;44.00;19.38;;;8.70;99.90;;;;;;4919656;29;20090;-79
2023/11/21 04:27:56;;;;;;;;;;;8.80;99.90;;;;;;4938177;28;20050;-79
2023/11/21 04:30:44;;;;;;;40.33;18.95;;;8.70;99.90;;;;;;4926906;28;19914;-79
2023/11/21 04:33:31;;;;;;;36.42;18.83;;;8.70;99.90;;;;;;4913681;29;20043;-79
2023/11/21 04:36:19;;;;;;;43.35;19.13;;;8.80;99.90;;;;;;4925123;29;20188;-79
2023/11/21 04:39:06;;;;;;;37.42;18.95;;;8.70;99.90;;;;;;4926545;29;20118;-79
2023/11/21 04:41:52;;;;;;;42.35;19.33;;;8.80;99.90;;;;;;4916113;29;20032;-79
2023/11/21 04:44:40;;;;;;;39.28;19.92;;;8.70;99.90;;;;;;4904608;29;20079;-79
2023/11/21 04:47:26;;;;;;;;;;;8.70;99.90;;;;;;4947252;29;20353;-79
2023/11/21 04:50:12;;;;;;;44.90;18.90;;;8.70;99.90;;;;;;4933479;29;20341;-79
2023/11/21 04:52:58;;;;;;;38.25;18.52;;;8.80;99.90;;;;;;4945305;29;20072;-79
2023/11/21 04:55:46;;;;;;;40.65;20.10;;;8.80;99.90;;;;;;4924939;28;20050;-79
2023/11/21 04:58:32;;;;;;;47.83;21.00;;;8.80;99.90;;;;;;4934394;29;20039;-79
2023/11/21 05:01:20;;;;;;;49.72;22.40;;;8.80;99.90;;;;;;4945588;29;20063;-79
2023/11/21 05:04:06;;;;;;;37.80;19.67;;;8.70;99.90;;;;;;4936357;29;20536;-79
2023/11/21 05:06:54;;;;;;;41.65;20.65;;;8.80;99.90;;;;;;4911016;29;20054;-79
2023/11/21 05:09:45;;;;;;;43.72;20.33;;;8.80;99.90;;;;;;4932472;29;20039;-79
2023/11/21 05:12:36;;;;;;;43.80;21.63;;;8.70;99.90;;;;;;4933733;29;20412;-79
2023/11/21 05:15:24;;;;;;;37.83;20.90;;;8.80;99.90;;;;;;4925238;29;20039;-79
2023/11/21 05:18:11;;;;;;;43.65;21.33;;;8.70;99.90;;;;;;4920916;29;20035;-79
2023/11/21 05:20:57;;;;;;;47.78;22.38;;;8.70;99.90;;;;;;4931637;29;20039;-79
2023/11/21 05:23:43;;;;;;;42.55;21.33;;;8.70;99.90;;;;;;4906601;29;20059;-79
2023/11/21 05:26:29;;;;;;;49.80;23.60;;;8.70;99.90;;;;;;4932063;28;20039;-79
2023/11/21 05:29:15;;;;;;;44.85;21.80;;;8.70;99.90;;;;;;4939295;28;20123;-79
2023/11/21 05:32:02;;;;;;;45.35;22.63;;;8.70;99.90;;;;;;4916241;29;20142;-79
2023/11/21 05:34:48;;;;;;;41.63;22.05;;;8.70;99.90;;;;;;4937882;28;20038;-79
2023/11/21 05:37:34;;;;;;;39.92;21.05;;;8.70;99.90;;;;;;4915282;29;20043;-79
2023/11/21 05:40:21;;;;;;;49.75;24.25;;;8.70;99.90;;;;;;4932993;29;20039;-79
2023/11/21 05:43:07;;;;;;;44.00;22.48;;;8.60;99.90;;;;;;4911147;29;20039;-79
2023/11/21 05:45:54;;;;;;;45.25;22.42;;;8.60;99.90;;;;;;4926111;29;20078;-79
2023/11/21 05:48:42;;;;;;;40.88;21.40;;;8.70;99.90;;;;;;4932539;28;20089;-79
2023/11/21 05:51:28;;;;;;;37.97;19.08;;;8.70;99.90;;;;;;4929881;29;20093;-79
2023/11/21 05:54:14;;;;;;;46.50;22.95;;;8.70;99.90;;;;;;4928576;28;20098;-79
2023/11/21 05:57:00;;;;;;;36.97;19.45;;;8.70;99.90;;;;;;4935692;28;20045;-79
2023/11/21 05:59:46;;;;;;;40.78;19.77;;;8.80;99.90;;;;;;4930371;29;20238;-79
2023/11/21 06:02:32;;;;;;;39.20;18.67;;;8.80;99.90;;;;;;4937119;28;20035;-79
2023/11/21 06:05:23;;;;;;;29.10;14.52;;;8.70;99.90;;;;;;4927653;29;20052;-77
2023/11/21 06:08:09;;;;;;;36.83;14.00;;;8.80;99.90;;;;;;4925393;29;20046;-77
2023/11/21 06:10:56;;;;;;;21.85;12.18;;;8.80;99.90;;;;;;4913390;28;20039;-77
2023/11/21 06:13:42;;;;;;;17.27;9.57;;;8.80;99.90;;;;;;4917672;29;20043;-77
2023/11/21 06:16:29;;;;;;;10.13;6.35;;;8.70;99.90;;;;;;4914250;29;20038;-77
2023/11/21 06:19:15;;;;;;;7.35;4.50;;;8.70;99.90;;;;;;4929766;29;20603;-79
2023/11/21 06:22:03;;;;;;;6.28;3.00;;;8.70;99.90;;;;;;4931105;29;20133;-79
2023/11/21 06:24:49;;;;;;;4.97;2.97;;;8.70;99.90;;;;;;4932581;29;20067;-79
2023/11/21 06:27:41;;;;;;;5.45;3.10;;;8.50;99.90;;;;;;4916521;29;20047;-79
2023/11/21 06:30:28;;;;;;;4.68;2.97;;;8.50;99.90;;;;;;4913759;29;20035;-79
2023/11/21 06:33:14;;;;;;;4.18;2.63;;;8.60;99.90;;;;;;4918546;29;20090;-79
2023/11/21 06:36:04;;;;;;;8.13;3.65;;;8.50;99.90;;;;;;4907538;29;20040;-79
2023/11/21 06:38:50;;;;;;;5.80;3.72;;;8.50;99.90;;;;;;4915039;29;20070;-79
2023/11/21 06:41:38;;;;;;;4.07;2.85;;;8.50;99.90;;;;;;4917524;29;20031;-79
2023/11/21 06:44:26;;;;;;;6.90;4.45;;;8.50;99.90;;;;;;4897572;29;20047;-77
2023/11/21 06:47:12;;;;;;;7.35;5.25;;;8.40;99.90;;;;;;4918334;29;20044;-77
2023/11/21 06:50:00;;;;;;;10.60;5.90;;;8.40;99.90;;;;;;4910949;29;20055;-77
2023/11/21 06:52:46;;;;;;;;;;;8.30;99.90;;;;;;4924645;29;20036;-78
2023/11/21 06:55:32;;;;;;;10.70;7.82;;;8.30;99.90;;;;;;4922419;29;19918;-78
2023/11/21 06:58:19;;;;;;;14.38;7.70;;;8.10;99.90;;;;;;4925412;29;20074;-79
2023/11/21 07:01:06;;;;;;;12.20;8.05;;;8.10;99.90;;;;;;4926322;29;20036;-77
2023/11/21 07:03:52;;;;;;;14.82;8.45;;;8.10;99.90;;;;;;4910570;29;20043;-77
2023/11/21 07:06:38;;;;;;;17.55;9.25;;;8.10;99.90;;;;;;4893328;29;20047;-78
2023/11/21 07:09:25;;;;;;;16.90;10.07;;;8.10;99.90;;;;;;4919309;29;20039;-78
2023/11/21 07:12:12;;;;;;;18.10;10.57;;;8.10;99.90;;;;;;4894495;29;20048;-78
2023/11/21 07:14:59;;;;;;;14.98;10.02;;;8.10;99.90;;;;;;4920233;29;20044;-78
2023/11/21 07:17:46;;;;;;;15.95;11.35;;;8.10;99.90;;;;;;4923206;29;20130;-77
2023/11/21 07:20:33;;;;;;;17.52;10.85;;;8.10;99.90;;;;;;4905408;29;20047;-78
2023/11/21 07:23:22;;;;;;;18.48;11.18;;;8.10;99.90;;;;;;4933996;29;20046;-78
2023/11/21 07:26:10;;;;;;;18.48;10.25;;;8.10;99.90;;;;;;4942995;29;20709;-78
2023/11/21 07:28:57;;;;;;;;;;;8.10;99.90;;;;;;4918748;29;20040;-78
2023/11/21 07:31:43;;;;;;;19.52;10.90;;;8.10;99.90;;;;;;4941860;28;20421;-78
2023/11/21 07:34:29;;;;;;;16.58;9.98;;;8.10;99.90;;;;;;4910148;29;20043;-78
2023/11/21 07:37:15;;;;;;;17.92;10.38;;;8.00;99.90;;;;;;4923756;29;20103;-78
2023/11/21 07:40:03;;;;;;;16.77;10.45;;;8.10;99.90;;;;;;4941587;29;20106;-78
2023/11/21 07:42:50;;;;;;;17.00;9.57;;;8.10;99.90;;;;;;4942124;29;20472;-78
2023/11/21 07:45:36;;;;;;;13.25;9.32;;;8.00;99.90;;;;;;4942600;29;20469;-77
2023/11/21 07:48:23;;;;;;;15.25;8.85;;;8.00;99.90;;;;;;4896606;29;20040;-77
2023/11/21 07:51:10;;;;;;;15.50;10.35;;;7.90;99.90;;;;;;4910474;29;20054;-77
2023/11/21 07:53:57;;;;;;;15.60;8.85;;;7.90;99.90;;;;;;4901822;29;20047;-77
2023/11/21 07:56:44;;;;;;;13.50;7.57;;;7.90;99.90;;;;;;4927002;28;20049;-77
2023/11/21 07:59:30;;;;;;;17.05;10.93;;;7.80;99.90;;;;;;4915196;29;20748;-78
2023/11/21 08:02:17;;;;;;;21.70;11.60;;;7.80;99.90;;;;;;4937956;28;20043;-77
2023/11/21 08:05:03;;;;;;;19.15;11.43;;;7.80;99.90;;;;;;4961209;28;20687;-77
2023/11/21 08:07:50;;;;;;;18.10;10.82;;;7.70;99.90;;;;;;4915916;29;20035;-77
2023/11/21 08:10:36;;;;;;;16.00;9.18;;;7.80;99.90;;;;;;4929306;29;20031;-77
2023/11/21 08:13:24;;;;;;;17.20;10.88;;;7.80;99.90;;;;;;4916788;29;20471;-77
2023/11/21 08:16:10;;;;;;;;;;;7.80;99.90;;;;;;4937371;29;20121;-76
2023/11/21 08:18:57;;;;;;;17.77;10.35;;;7.80;99.90;;;;;;4956164;28;19914;-76
2023/11/21 08:21:45;;;;;;;16.93;10.33;;;7.80;99.90;;;;;;4912390;29;20048;-76
2023/11/21 08:24:31;;;;;;;19.08;10.95;;;7.80;99.90;;;;;;4925336;29;20047;-75
2023/11/21 08:27:17;;;;;;;21.23;11.40;;;7.80;99.90;;;;;;4926410;29;20058;-75
2023/11/21 08:30:04;;;;;;;17.85;9.88;;;7.60;99.90;;;;;;4943944;28;20337;-76
2023/11/21 08:32:53;;;;;;;17.63;12.10;;;7.70;99.90;;;;;;4913224;29;20052;-76
2023/11/21 08:35:39;;;;;;;17.75;10.90;;;7.70;99.90;;;;;;4904080;29;20039;-76
2023/11/21 08:38:25;;;;;;;16.13;10.45;;;7.70;99.90;;;;;;4933726;29;20046;-76
2023/11/21 08:41:11;;;;;;;18.02;9.60;;;7.70;99.90;;;;;;4909064;29;20075;-76
2023/11/21 08:43:59;;;;;;;15.63;9.18;;;7.70;99.90;;;;;;4914560;29;20130;-76
2023/11/21 08:46:46;;;;;;;15.85;8.90;;;7.80;99.90;;;;;;4914665;29;20040;-76
2023/11/21 08:49:32;;;;;;;13.02;8.60;;;7.70;99.90;;;;;;4917313;29;20151;-76
2023/11/21 08:52:22;;;;;;;13.80;7.38;;;7.70;99.90;;;;;;4917096;29;20090;-75
2023/11/21 08:55:09;;;;;;;12.50;7.68;;;7.50;99.90;;;;;;4934330;29;20097;-77
2023/11/21 08:57:58;;;;;;;12.60;7.07;;;7.60;99.90;;;;;;4914274;29;20067;-78
2023/11/21 09:00:46;;;;;;;13.07;7.22;;;7.60;99.90;;;;;;4914674;29;20031;-78
2023/11/21 09:03:34;;;;;;;11.43;6.93;;;7.40;99.90;;;;;;4927426;29;20047;-78
2023/11/21 09:06:20;;;;;;;12.32;7.72;;;7.50;99.90;;;;;;4927614;29;20040;-78
2023/11/21 09:09:08;;;;;;;11.20;7.57;;;7.50;99.90;;;;;;4913905;29;20118;-79
2023/11/21 09:11:55;;;;;;;7.93;5.63;;;7.40;99.90;;;;;;4915221;29;20043;-79
2023/11/21 09:14:42;;;;;;;8.57;5.77;;;7.40;99.90;;;;;;4914698;29;20047;-78
2023/11/21 09:17:28;;;;;;;10.98;6.40;;;7.50;99.90;;;;;;4899074;29;20075;-79
2023/11/21 09:20:15;;;;;;;10.93;6.45;;;7.50;99.90;;;;;;4907038;29;20039;-79
2023/11/21 09:23:02;;;;;;;9.77;6.47;;;7.50;99.90;;;;;;4910328;29;20051;-78
2023/11/21 09:25:49;;;;;;;9.10;6.17;;;7.50;99.90;;;;;;4900720;29;20043;-78
2023/11/21 09:28:38;;;;;;;13.85;6.85;;;7.50;99.90;;;;;;4914360;29;20570;-79
2023/11/21 09:31:24;;;;;;;8.55;6.05;;;7.60;99.90;;;;;;4911597;29;20047;-77
2023/11/21 09:34:11;;;;;;;13.80;6.65;;;7.50;99.90;;;;;;4930231;29;20039;-78
2023/11/21 09:36:59;;;;;;;10.27;6.55;;;7.60;99.90;;;;;;4946349;29;20380;-78
2023/11/21 09:39:47;;;;;;;13.50;4.95;;;7.60;99.90;;;;;;4949452;29;20480;-78
2023/11/21 09:42:39;;;;;;;9.57;6.20;;;7.60;99.90;;;;;;4920204;29;20065;-76
2023/11/21 09:45:31;;;;;;;8.60;6.53;;;7.50;99.90;;;;;;4946543;28;20039;-76
2023/11/21 09:48:17;;;;;;;8.18;5.72;;;7.60;99.90;;;;;;4935609;28;20543;-76
2023/11/21 09:51:03;;;;;;;9.75;6.22;;;7.70;99.90;;;;;;4945647;29;20070;-79
2023/11/21 09:53:52;;;;;;;9.38;6.65;;;7.80;99.90;;;;;;4924922;29;20122;-76
2023/11/21 09:56:39;;;;;;;9.25;6.30;;;7.80;99.90;;;;;;4912442;29;20035;-78
2023/11/21 09:59:26;;;;;;;10.02;6.55;;;7.80;99.90;;;;;;4928868;29;20039;-79
2023/11/21 10:02:13;;;;;;;11.40;6.43;;;8.00;99.90;;;;;;4945182;29;20070;-79
2023/11/21 10:05:00;;;;;;;10.57;7.60;;;7.90;99.90;;;;;;4945524;28;20043;-78
2023/11/21 10:07:46;;;;;;;11.85;8.35;;;7.90;99.90;;;;;;4951295;28;20424;-78
2023/11/21 10:10:33;;;;;;;12.40;6.57;;;7.90;99.90;;;;;;4946910;28;20197;-78
2023/11/21 10:13:20;;;;;;;8.65;6.47;;;7.90;99.90;;;;;;4933313;29;20472;-78
2023/11/21 10:16:07;;;;;;;9.67;6.93;;;7.80;99.90;;;;;;4922446;28;20042;-78
2023/11/21 10:18:55;;;;;;;10.75;6.90;;;7.70;99.90;;;;;;4924023;29;20350;-78
2023/11/21 10:21:41;;;;;;;;;;;7.70;99.90;;;;;;4941934;29;20106;-76
2023/11/21 10:24:27;;;;;;;12.55;6.82;;;7.70;99.90;;;;;;4937748;28;19952;-77
2023/11/21 10:27:14;;;;;;;13.35;6.68;;;7.80;99.90;;;;;;4916664;29;20055;-77
2023/11/21 10:30:04;;;;;;;10.93;6.38;;;7.80;99.90;;;;;;4944111;29;20043;-78
2023/11/21 10:32:50;;;;;;;9.35;6.45;;;7.70;99.90;;;;;;4913686;29;20050;-77
2023/11/21 10:35:53;;;;;;;9.80;6.28;;;7.70;99.90;;;;;;4942696;29;20035;-77
2023/11/21 10:38:45;;;;;;;9.45;6.40;;;7.80;99.90;;;;;;4930072;29;20114;-77
2023/11/21 10:41:31;;;;;;;10.48;6.10;;;7.90;99.90;;;;;;4926153;29;20039;-77
2023/11/21 10:44:23;;;;;;;10.27;6.40;;;7.90;99.90;;;;;;4928476;28;20054;-76
2023/11/21 10:47:11;;;;;;;11.13;5.80;;;8.00;99.90;;;;;;4930244;29;20421;-77
2023/11/21 10:49:57;;;;;;;;;;;7.90;99.90;;;;;;4946338;28;20039;-77
2023/11/21 10:52:46;;;;;;;9.05;6.35;;;8.00;99.90;;;;;;4946080;28;20341;-77
2023/11/21 10:55:32;;;;;;;9.30;6.78;;;8.00;99.90;;;;;;4932223;28;20046;-77
2023/11/21 10:58:20;;;;;;;10.68;6.22;;;8.00;99.90;;;;;;4942978;28;20038;-77
2023/11/21 11:01:06;;;;;;;8.43;6.13;;;8.00;99.90;;;;;;4917409;29;20441;-76
2023/11/21 11:03:54;;;;;;;8.82;6.10;;;8.00;99.90;;;;;;4923440;29;20082;-76
2023/11/21 11:06:43;;;;;;;12.95;6.75;;;8.10;99.90;;;;;;4902772;29;20090;-76
2023/11/21 11:09:29;;;;;;;10.30;6.60;;;8.10;99.90;;;;;;4924576;29;20102;-76
2023/11/21 11:12:17;;;;;;;11.57;6.63;;;8.10;99.90;;;;;;4921417;29;20059;-77
2023/11/21 11:15:05;;;;;;;10.80;6.43;;;8.10;99.90;;;;;;4929703;29;20083;-77
2023/11/21 11:17:51;;;;;;;11.23;6.93;;;8.10;99.90;;;;;;4943468;28;20126;-79
2023/11/21 11:20:37;;;;;;;8.05;6.10;;;8.20;99.90;;;;;;4930981;28;20039;-77
2023/11/21 11:23:41;;;;;;;7.97;6.30;;;8.20;99.90;;;;;;4925325;29;20388;-76
2023/11/21 11:27:02;;;;;;;8.10;5.28;;;8.20;99.90;;;;;;4923030;29;20413;-76
2023/11/21 11:29:52;;;;;;;9.73;5.38;;;8.20;99.90;;;;;;4883724;29;20073;-76
2023/11/21 11:33:00;;;;;;;9.30;5.82;;;8.30;99.90;;;;;;4893866;29;20411;-76
2023/11/21 11:35:57;;;;;;;8.02;5.45;;;8.20;99.90;;;;;;4924072;29;20409;-74
2023/11/21 11:38:45;;;;;;;9.68;5.78;;;8.10;99.90;;;;;;4903982;29;20039;-76
2023/11/21 11:41:35;;;;;;;9.48;4.93;;;8.20;99.90;;;;;;4895942;29;20040;-76
2023/11/21 11:44:46;;;;;;;8.07;4.53;;;8.10;99.90;;;;;;4907450;29;20036;-76
2023/11/21 11:47:38;;;;;;;7.38;4.68;;;8.10;99.90;;;;;;4934019;29;20110;-75
2023/11/21 11:50:25;;;;;;;9.18;5.53;;;8.10;99.90;;;;;;4913031;29;20880;-76
2023/11/21 11:53:14;;;;;;;8.13;5.05;;;8.10;99.90;;;;;;4916120;29;20043;-75
2023/11/21 11:56:23;;;;;;;9.05;4.82;;;8.10;99.90;;;;;;4906050;29;20047;-76
2023/11/21 11:59:09;;;;;;;7.75;5.38;;;8.20;99.90;;;;;;4913225;29;20123;-76
2023/11/21 12:01:57;;;;;;;8.07;5.80;;;8.20;99.90;;;;;;4914885;29;20074;-76
2023/11/21 12:04:44;;;;;;;8.52;5.18;;;8.30;99.90;;;;;;4907424;29;20039;-77
2023/11/21 12:07:50;;;;;;;8.18;4.30;;;8.20;99.90;;;;;;4896204;29;20075;-76
2023/11/21 12:10:38;;;;;;;8.65;4.63;;;8.30;99.90;;;;;;4892394;29;20127;-76
2023/11/21 12:13:24;;;;;;;7.43;4.30;;;8.30;99.90;;;;;;4911078;29;20048;-77
2023/11/21 12:16:12;;;;;;;6.82;4.40;;;8.40;99.90;;;;;;4935280;29;20130;-77
2023/11/21 12:18:59;;;;;;;7.68;4.40;;;8.40;99.90;;;;;;4909944;29;20123;-76
2023/11/21 12:21:45;;;;;;;8.02;4.22;;;8.30;99.90;;;;;;4912291;29;20343;-76
2023/11/21 12:24:31;;;;;;;7.63;4.60;;;8.40;99.90;;;;;;4922809;29;20090;-77
2023/11/21 12:27:19;;;;;;;8.43;4.75;;;8.40;99.90;;;;;;4911421;29;20534;-77
2023/11/21 12:30:05;;;;;;;7.68;4.93;;;8.30;99.90;;;;;;4883674;29;20052;-77
2023/11/21 12:32:52;;;;;;;7.65;4.40;;;8.20;99.90;;;;;;4907119;29;20051;-77
2023/11/21 12:35:38;;;;;;;6.38;4.13;;;8.20;99.90;;;;;;4918639;29;20046;-77
2023/11/21 12:38:24;;;;;;;6.88;3.85;;;8.20;99.90;;;;;;4930808;29;20032;-77
2023/11/21 12:41:10;;;;;;;6.47;3.70;;;8.30;99.90;;;;;;4917713;29;20747;-77
2023/11/21 12:43:57;;;;;;;7.68;4.22;;;8.30;99.90;;;;;;4927129;29;20338;-77
2023/11/21 12:46:45;;;;;;;8.15;3.92;;;8.30;99.90;;;;;;4908924;29;20119;-76
2023/11/21 12:49:33;;;;;;;5.63;3.72;;;8.20;99.90;;;;;;4910277;29;20035;-76
2023/11/21 12:52:20;;;;;;;8.05;3.63;;;8.00;99.90;;;;;;4914385;29;20043;-77
2023/11/21 12:55:09;;;;;;;4.60;3.08;;;8.10;99.90;;;;;;4920645;29;20047;-77
2023/11/21 12:57:57;;;;;;;5.18;3.33;;;8.00;99.90;;;;;;4905825;29;20139;-77
2023/11/21 13:00:45;;;;;;;5.57;3.33;;;7.90;99.90;;;;;;4938531;29;20523;-77
2023/11/21 13:03:32;;;;;;;6.90;3.63;;;7.90;99.90;;;;;;4929586;29;20471;-77
2023/11/21 13:06:21;;;;;;;5.60;3.30;;;8.00;99.90;;;;;;4938602;29;20057;-77
2023/11/21 13:09:12;;;;;;;4.75;3.25;;;8.00;99.90;;;;;;4914401;29;20046;-77
2023/11/21 13:12:03;;;;;;;4.72;2.70;;;8.00;99.90;;;;;;4891983;29;20053;-77
2023/11/21 13:14:49;;;;;;;6.38;3.10;;;7.90;99.90;;;;;;4907529;29;20047;-77
2023/11/21 13:17:35;;;;;;;6.55;3.15;;;7.90;99.90;;;;;;4920798;29;20050;-76
2023/11/21 13:20:26;;;;;;;5.85;3.70;;;7.90;99.90;;;;;;4895548;29;20072;-76
2023/11/21 13:23:12;;;;;;;5.28;3.40;;;7.90;99.90;;;;;;4923354;28;20054;-76
2023/11/21 13:26:03;;;;;;;12.10;4.45;;;8.00;99.90;;;;;;4923180;29;20042;-76
2023/11/21 13:28:51;;;;;;;6.18;3.15;;;7.90;99.90;;;;;;4925067;29;20039;-76
2023/11/21 13:31:38;;;;;;;6.18;3.97;;;8.00;99.90;;;;;;4929741;29;20055;-76
2023/11/21 13:34:27;;;;;;;5.10;3.30;;;8.10;99.90;;;;;;4933646;29;20050;-76
2023/11/21 13:37:13;;;;;;;4.53;2.97;;;8.00;99.90;;;;;;4946362;29;20071;-76
2023/11/21 13:40:03;;;;;;;5.93;3.60;;;8.00;99.90;;;;;;4912474;29;20039;-76
2023/11/21 13:42:53;;;;;;;5.60;3.38;;;8.10;99.90;;;;;;4944426;28;20066;-76
2023/11/21 13:45:41;;;;;;;6.43;3.33;;;8.10;99.90;;;;;;4935207;29;20035;-76
2023/11/21 13:48:37;;;;;;;8.57;3.20;;;8.10;99.90;;;;;;4921681;29;20050;-76
2023/11/21 13:51:37;;;;;;;6.22;3.65;;;8.00;99.90;;;;;;4945031;29;20043;-76
2023/11/21 13:54:24;;;;;;;4.82;3.28;;;8.00;99.90;;;;;;4959644;28;20049;-75
2023/11/21 13:57:10;;;;;;;6.53;4.28;;;8.00;99.90;;;;;;4953205;28;20473;-75
2023/11/21 13:59:59;;;;;;;9.65;4.30;;;7.90;99.90;;;;;;4935541;28;20130;-75
2023/11/21 14:02:45;;;;;;;10.35;3.60;;;7.90;99.90;;;;;;4931303;29;20046;-75
2023/11/21 14:05:33;;;;;;;5.72;3.30;;;7.80;99.90;;;;;;4938464;28;20663;-75
2023/11/21 14:08:21;;;;;;;5.47;3.47;;;7.90;99.90;;;;;;4918384;28;20053;-75
2023/11/21 14:11:07;;;;;;;5.72;3.60;;;7.90;99.90;;;;;;4922201;29;20062;-75
2023/11/21 14:13:54;;;;;;;5.40;3.05;;;7.80;99.90;;;;;;4924671;29;20040;-75
2023/11/21 14:16:40;;;;;;;5.50;2.88;;;7.70;99.90;;;;;;4929813;29;20404;-75
2023/11/21 14:19:31;;;;;;;6.13;3.28;;;7.80;99.90;;;;;;4925966;29;20461;-75
2023/11/21 14:22:18;;;;;;;6.47;3.55;;;7.70;99.90;;;;;;4932970;29;20035;-75
2023/11/21 14:25:05;;;;;;;7.13;3.47;;;7.80;99.90;;;;;;4915888;29;20062;-75
2023/11/21 14:27:52;;;;;;;4.43;3.10;;;7.70;99.90;;;;;;4948739;29;20421;-75
2023/11/21 14:30:39;;;;;;;4.90;3.05;;;7.60;99.90;;;;;;4923515;29;20504;-76
2023/11/21 14:33:25;;;;;;;7.75;3.70;;;7.60;99.90;;;;;;4934199;28;20062;-75